sensor_id;sensor_type;location;lat;lon;timestamp;P1;durP1;ratioP1;P2;durP2;ratioP2
30543;SDS011;43388;46.308;4.600;2023-03-23T00:00:01;3.10;;;2.80;;
30543;SDS011;43388;46.308;4.600;2023-03-23T00:02:30;2.90;;;2.60;;
30543;SDS011;43388;46.308;4.600;2023-03-23T00:05:02;3.08;;;2.45;;
30543;SDS011;43388;46.308;4.600;2023-03-23T00:07:29;8.15;;;2.60;;
30543;SDS011;43388;46.308;4.600;2023-03-23T00:09:55;3.97;;;2.78;;
30543;SDS011;43388;46.308;4.600;2023-03-23T00:12:22;2.47;;;2.30;;
30543;SDS011;43388;46.308;4.600;2023-03-23T00:14:54;2.47;;;2.35;;
30543;SDS011;43388;46.308;4.600;2023-03-23T00:17:20;2.22;;;2.03;;
30543;SDS011;43388;46.308;4.600;2023-03-23T00:19:46;2.40;;;2.20;;
30543;SDS011;43388;46.308;4.600;2023-03-23T00:22:13;3.33;;;1.90;;
30543;SDS011;43388;46.308;4.600;2023-03-23T00:24:40;2.60;;;2.10;;
30543;SDS011;43388;46.308;4.600;2023-03-23T00:27:06;2.00;;;1.90;;
30543;SDS011;43388;46.308;4.600;2023-03-23T00:29:33;2.35;;;2.15;;
30543;SDS011;43388;46.308;4.600;2023-03-23T00:31:59;3.08;;;2.17;;
30543;SDS011;43388;46.308;4.600;2023-03-23T00:34:26;2.63;;;2.05;;
30543;SDS011;43388;46.308;4.600;2023-03-23T00:36:58;2.13;;;2.03;;
30543;SDS011;43388;46.308;4.600;2023-03-23T00:39:26;2.53;;;2.30;;
30543;SDS011;43388;46.308;4.600;2023-03-23T00:41:52;3.72;;;2.55;;
30543;SDS011;43388;46.308;4.600;2023-03-23T00:44:19;2.00;;;1.90;;
30543;SDS011;43388;46.308;4.600;2023-03-23T00:46:48;2.10;;;1.92;;
30543;SDS011;43388;46.308;4.600;2023-03-23T00:49:15;2.45;;;2.30;;
30543;SDS011;43388;46.308;4.600;2023-03-23T00:51:43;2.00;;;1.90;;
30543;SDS011;43388;46.308;4.600;2023-03-23T00:54:10;2.30;;;2.08;;
30543;SDS011;43388;46.308;4.600;2023-03-23T00:56:36;2.15;;;2.05;;
30543;SDS011;43388;46.308;4.600;2023-03-23T00:59:04;2.40;;;2.25;;
30543;SDS011;43388;46.308;4.600;2023-03-23T01:01:30;1.70;;;1.60;;
30543;SDS011;43388;46.308;4.600;2023-03-23T01:03:57;1.90;;;1.80;;
30543;SDS011;43388;46.308;4.600;2023-03-23T01:06:28;3.10;;;2.38;;
30543;SDS011;43388;46.308;4.600;2023-03-23T01:08:55;4.20;;;2.10;;
30543;SDS011;43388;46.308;4.600;2023-03-23T01:11:21;1.90;;;1.80;;
30543;SDS011;43388;46.308;4.600;2023-03-23T01:13:48;2.67;;;2.13;;
30543;SDS011;43388;46.308;4.600;2023-03-23T01:16:14;2.00;;;1.90;;
30543;SDS011;43388;46.308;4.600;2023-03-23T01:18:40;1.95;;;1.85;;
30543;SDS011;43388;46.308;4.600;2023-03-23T01:21:08;2.00;;;1.80;;
30543;SDS011;43388;46.308;4.600;2023-03-23T01:23:35;2.20;;;2.03;;
30543;SDS011;43388;46.308;4.600;2023-03-23T01:26:12;2.00;;;1.90;;
30543;SDS011;43388;46.308;4.600;2023-03-23T01:28:39;2.30;;;2.10;;
30543;SDS011;43388;46.308;4.600;2023-03-23T01:31:06;2.42;;;2.22;;
30543;SDS011;43388;46.308;4.600;2023-03-23T01:33:33;2.30;;;2.10;;
30543;SDS011;43388;46.308;4.600;2023-03-23T01:36:03;2.42;;;2.33;;
30543;SDS011;43388;46.308;4.600;2023-03-23T01:38:30;3.17;;;2.33;;
30543;SDS011;43388;46.308;4.600;2023-03-23T01:40:56;2.75;;;2.50;;
30543;SDS011;43388;46.308;4.600;2023-03-23T01:43:23;2.40;;;2.20;;
30543;SDS011;43388;46.308;4.600;2023-03-23T01:45:51;2.95;;;2.60;;
30543;SDS011;43388;46.308;4.600;2023-03-23T01:48:38;2.42;;;2.28;;
30543;SDS011;43388;46.308;4.600;2023-03-23T01:51:07;3.22;;;2.78;;
30543;SDS011;43388;46.308;4.600;2023-03-23T01:53:47;3.53;;;2.58;;
30543;SDS011;43388;46.308;4.600;2023-03-23T01:56:14;2.72;;;2.53;;
30543;SDS011;43388;46.308;4.600;2023-03-23T01:58:40;2.60;;;2.40;;
30543;SDS011;43388;46.308;4.600;2023-03-23T02:01:08;5.57;;;2.85;;
30543;SDS011;43388;46.308;4.600;2023-03-23T02:03:36;4.32;;;2.63;;
30543;SDS011;43388;46.308;4.600;2023-03-23T02:06:03;4.05;;;2.58;;
30543;SDS011;43388;46.308;4.600;2023-03-23T02:08:29;2.80;;;2.33;;
30543;SDS011;43388;46.308;4.600;2023-03-23T02:10:57;4.00;;;2.22;;
30543;SDS011;43388;46.308;4.600;2023-03-23T02:13:23;4.10;;;2.30;;
30543;SDS011;43388;46.308;4.600;2023-03-23T02:15:54;4.55;;;2.45;;
30543;SDS011;43388;46.308;4.600;2023-03-23T02:18:31;2.95;;;2.72;;
30543;SDS011;43388;46.308;4.600;2023-03-23T02:26:03;4.93;;;2.60;;
30543;SDS011;43388;46.308;4.600;2023-03-23T02:36:29;2.97;;;2.53;;
30543;SDS011;43388;46.308;4.600;2023-03-23T02:41:22;2.72;;;2.17;;
30543;SDS011;43388;46.308;4.600;2023-03-23T02:43:50;3.20;;;2.95;;
30543;SDS011;43388;46.308;4.600;2023-03-23T02:46:16;5.55;;;3.08;;
30543;SDS011;43388;46.308;4.600;2023-03-23T02:48:43;2.92;;;2.60;;
30543;SDS011;43388;46.308;4.600;2023-03-23T02:51:10;2.75;;;2.55;;
30543;SDS011;43388;46.308;4.600;2023-03-23T02:53:39;2.72;;;2.50;;
30543;SDS011;43388;46.308;4.600;2023-03-23T02:56:06;2.63;;;2.42;;
30543;SDS011;43388;46.308;4.600;2023-03-23T02:58:33;2.92;;;2.72;;
30543;SDS011;43388;46.308;4.600;2023-03-23T03:00:59;3.58;;;2.70;;
30543;SDS011;43388;46.308;4.600;2023-03-23T03:03:28;3.20;;;2.80;;
30543;SDS011;43388;46.308;4.600;2023-03-23T03:06:10;2.97;;;2.50;;
30543;SDS011;43388;46.308;4.600;2023-03-23T03:08:50;2.80;;;2.60;;
30543;SDS011;43388;46.308;4.600;2023-03-23T03:11:18;3.10;;;2.70;;
30543;SDS011;43388;46.308;4.600;2023-03-23T03:14:09;2.70;;;2.50;;
30543;SDS011;43388;46.308;4.600;2023-03-23T03:16:38;3.45;;;2.67;;
30543;SDS011;43388;46.308;4.600;2023-03-23T03:19:14;4.78;;;2.90;;
30543;SDS011;43388;46.308;4.600;2023-03-23T03:21:43;3.97;;;3.22;;
30543;SDS011;43388;46.308;4.600;2023-03-23T03:24:10;3.40;;;3.15;;
30543;SDS011;43388;46.308;4.600;2023-03-23T03:26:40;6.35;;;5.38;;
30543;SDS011;43388;46.308;4.600;2023-03-23T03:29:22;4.25;;;3.00;;
30543;SDS011;43388;46.308;4.600;2023-03-23T03:31:49;3.85;;;3.38;;
30543;SDS011;43388;46.308;4.600;2023-03-23T03:34:17;2.95;;;2.75;;
30543;SDS011;43388;46.308;4.600;2023-03-23T03:36:43;4.07;;;3.70;;
30543;SDS011;43388;46.308;4.600;2023-03-23T03:39:11;3.75;;;2.95;;
30543;SDS011;43388;46.308;4.600;2023-03-23T03:41:37;3.53;;;3.22;;
30543;SDS011;43388;46.308;4.600;2023-03-23T03:44:04;3.85;;;3.20;;
30543;SDS011;43388;46.308;4.600;2023-03-23T03:46:31;4.30;;;3.35;;
30543;SDS011;43388;46.308;4.600;2023-03-23T03:48:58;3.13;;;2.90;;
30543;SDS011;43388;46.308;4.600;2023-03-23T03:51:25;2.97;;;2.67;;
30543;SDS011;43388;46.308;4.600;2023-03-23T03:53:51;3.22;;;2.92;;
30543;SDS011;43388;46.308;4.600;2023-03-23T03:56:17;3.70;;;3.20;;
30543;SDS011;43388;46.308;4.600;2023-03-23T03:58:44;3.63;;;3.33;;
30543;SDS011;43388;46.308;4.600;2023-03-23T04:01:13;3.60;;;3.30;;
30543;SDS011;43388;46.308;4.600;2023-03-23T04:03:40;3.25;;;3.05;;
30543;SDS011;43388;46.308;4.600;2023-03-23T04:06:06;3.85;;;3.50;;
30543;SDS011;43388;46.308;4.600;2023-03-23T04:08:33;3.10;;;2.80;;
30543;SDS011;43388;46.308;4.600;2023-03-23T04:10:59;3.15;;;2.85;;
30543;SDS011;43388;46.308;4.600;2023-03-23T04:13:25;4.03;;;3.25;;
30543;SDS011;43388;46.308;4.600;2023-03-23T04:15:51;3.40;;;3.20;;
30543;SDS011;43388;46.308;4.600;2023-03-23T04:18:18;4.43;;;3.10;;
30543;SDS011;43388;46.308;4.600;2023-03-23T04:20:45;4.55;;;3.20;;
30543;SDS011;43388;46.308;4.600;2023-03-23T04:23:12;3.08;;;2.83;;
30543;SDS011;43388;46.308;4.600;2023-03-23T04:25:39;3.90;;;3.35;;
30543;SDS011;43388;46.308;4.600;2023-03-23T04:28:07;4.35;;;2.85;;
30543;SDS011;43388;46.308;4.600;2023-03-23T04:30:35;3.42;;;3.00;;
30543;SDS011;43388;46.308;4.600;2023-03-23T04:33:01;3.40;;;3.10;;
30543;SDS011;43388;46.308;4.600;2023-03-23T04:35:28;3.30;;;2.95;;
30543;SDS011;43388;46.308;4.600;2023-03-23T04:37:54;3.53;;;3.22;;
30543;SDS011;43388;46.308;4.600;2023-03-23T04:40:20;4.75;;;3.05;;
30543;SDS011;43388;46.308;4.600;2023-03-23T04:42:47;3.53;;;3.22;;
30543;SDS011;43388;46.308;4.600;2023-03-23T04:45:17;5.32;;;2.90;;
30543;SDS011;43388;46.308;4.600;2023-03-23T04:47:46;3.35;;;3.10;;
30543;SDS011;43388;46.308;4.600;2023-03-23T04:50:18;3.28;;;2.97;;
30543;SDS011;43388;46.308;4.600;2023-03-23T04:52:45;3.78;;;3.47;;
30543;SDS011;43388;46.308;4.600;2023-03-23T04:55:11;3.30;;;3.10;;
30543;SDS011;43388;46.308;4.600;2023-03-23T04:57:37;3.63;;;3.15;;
30543;SDS011;43388;46.308;4.600;2023-03-23T05:00:05;4.30;;;3.17;;
30543;SDS011;43388;46.308;4.600;2023-03-23T05:02:36;3.25;;;2.95;;
30543;SDS011;43388;46.308;4.600;2023-03-23T05:05:04;3.08;;;2.88;;
30543;SDS011;43388;46.308;4.600;2023-03-23T05:07:30;2.80;;;2.60;;
30543;SDS011;43388;46.308;4.600;2023-03-23T05:09:56;3.47;;;3.22;;
30543;SDS011;43388;46.308;4.600;2023-03-23T05:12:22;3.72;;;2.78;;
30543;SDS011;43388;46.308;4.600;2023-03-23T05:14:49;4.45;;;2.70;;
30543;SDS011;43388;46.308;4.600;2023-03-23T05:17:15;4.50;;;3.00;;
30543;SDS011;43388;46.308;4.600;2023-03-23T05:19:42;3.28;;;2.90;;
30543;SDS011;43388;46.308;4.600;2023-03-23T05:22:12;5.60;;;2.92;;
30543;SDS011;43388;46.308;4.600;2023-03-23T05:24:39;2.97;;;2.70;;
30543;SDS011;43388;46.308;4.600;2023-03-23T05:27:05;2.97;;;2.78;;
30543;SDS011;43388;46.308;4.600;2023-03-23T05:29:33;7.70;;;3.13;;
30543;SDS011;43388;46.308;4.600;2023-03-23T05:32:01;3.50;;;2.92;;
30543;SDS011;43388;46.308;4.600;2023-03-23T05:34:27;6.13;;;3.50;;
30543;SDS011;43388;46.308;4.600;2023-03-23T05:36:54;4.30;;;3.33;;
30543;SDS011;43388;46.308;4.600;2023-03-23T05:39:22;5.50;;;2.90;;
30543;SDS011;43388;46.308;4.600;2023-03-23T05:41:48;3.33;;;3.03;;
30543;SDS011;43388;46.308;4.600;2023-03-23T05:44:14;3.13;;;2.83;;
30543;SDS011;43388;46.308;4.600;2023-03-23T05:46:40;2.92;;;2.72;;
30543;SDS011;43388;46.308;4.600;2023-03-23T05:49:06;5.82;;;2.95;;
30543;SDS011;43388;46.308;4.600;2023-03-23T05:51:33;3.38;;;3.00;;
30543;SDS011;43388;46.308;4.600;2023-03-23T05:54:00;3.00;;;2.70;;
30543;SDS011;43388;46.308;4.600;2023-03-23T05:56:26;3.30;;;2.95;;
30543;SDS011;43388;46.308;4.600;2023-03-23T05:58:57;3.78;;;3.40;;
30543;SDS011;43388;46.308;4.600;2023-03-23T06:01:23;3.53;;;2.92;;
30543;SDS011;43388;46.308;4.600;2023-03-23T06:03:49;3.20;;;3.00;;
30543;SDS011;43388;46.308;4.600;2023-03-23T06:06:21;3.80;;;3.40;;
30543;SDS011;43388;46.308;4.600;2023-03-23T06:08:47;3.08;;;2.78;;
30543;SDS011;43388;46.308;4.600;2023-03-23T06:11:15;3.97;;;2.85;;
30543;SDS011;43388;46.308;4.600;2023-03-23T06:13:41;3.28;;;3.03;;
30543;SDS011;43388;46.308;4.600;2023-03-23T06:16:07;3.38;;;3.10;;
30543;SDS011;43388;46.308;4.600;2023-03-23T06:18:34;5.70;;;3.80;;
30543;SDS011;43388;46.308;4.600;2023-03-23T06:21:01;4.50;;;3.38;;
30543;SDS011;43388;46.308;4.600;2023-03-23T06:23:27;3.65;;;3.35;;
30543;SDS011;43388;46.308;4.600;2023-03-23T06:25:54;5.22;;;3.42;;
30543;SDS011;43388;46.308;4.600;2023-03-23T06:28:22;5.07;;;3.30;;
30543;SDS011;43388;46.308;4.600;2023-03-23T06:30:48;3.70;;;3.35;;
30543;SDS011;43388;46.308;4.600;2023-03-23T06:33:14;5.97;;;3.55;;
30543;SDS011;43388;46.308;4.600;2023-03-23T06:35:42;6.75;;;3.80;;
30543;SDS011;43388;46.308;4.600;2023-03-23T06:38:08;5.18;;;4.15;;
30543;SDS011;43388;46.308;4.600;2023-03-23T06:40:34;7.95;;;3.70;;
30543;SDS011;43388;46.308;4.600;2023-03-23T06:43:01;4.82;;;4.18;;
30543;SDS011;43388;46.308;4.600;2023-03-23T06:45:28;4.28;;;3.90;;
30543;SDS011;43388;46.308;4.600;2023-03-23T06:47:54;4.13;;;3.72;;
30543;SDS011;43388;46.308;4.600;2023-03-23T06:50:20;4.10;;;3.80;;
30543;SDS011;43388;46.308;4.600;2023-03-23T06:52:47;4.13;;;3.72;;
30543;SDS011;43388;46.308;4.600;2023-03-23T06:55:14;5.32;;;3.60;;
30543;SDS011;43388;46.308;4.600;2023-03-23T06:57:40;4.55;;;3.28;;
30543;SDS011;43388;46.308;4.600;2023-03-23T07:00:07;3.70;;;3.40;;
30543;SDS011;43388;46.308;4.600;2023-03-23T07:02:36;4.78;;;3.25;;
30543;SDS011;43388;46.308;4.600;2023-03-23T07:05:02;4.35;;;3.72;;
30543;SDS011;43388;46.308;4.600;2023-03-23T07:07:28;3.95;;;3.45;;
30543;SDS011;43388;46.308;4.600;2023-03-23T07:09:55;6.63;;;3.40;;
30543;SDS011;43388;46.308;4.600;2023-03-23T07:12:21;6.20;;;3.60;;
30543;SDS011;43388;46.308;4.600;2023-03-23T07:14:48;4.20;;;3.90;;
30543;SDS011;43388;46.308;4.600;2023-03-23T07:17:14;3.90;;;3.58;;
30543;SDS011;43388;46.308;4.600;2023-03-23T07:19:40;5.43;;;4.93;;
30543;SDS011;43388;46.308;4.600;2023-03-23T07:22:07;8.82;;;8.02;;
30543;SDS011;43388;46.308;4.600;2023-03-23T07:24:33;7.55;;;5.47;;
30543;SDS011;43388;46.308;4.600;2023-03-23T07:26:59;5.82;;;5.13;;
30543;SDS011;43388;46.308;4.600;2023-03-23T07:29:26;5.03;;;4.63;;
30543;SDS011;43388;46.308;4.600;2023-03-23T07:31:53;5.10;;;4.70;;
30543;SDS011;43388;46.308;4.600;2023-03-23T07:34:19;5.00;;;4.22;;
30543;SDS011;43388;46.308;4.600;2023-03-23T07:36:45;4.95;;;4.18;;
30543;SDS011;43388;46.308;4.600;2023-03-23T07:39:12;5.78;;;3.88;;
30543;SDS011;43388;46.308;4.600;2023-03-23T07:41:38;4.78;;;3.55;;
30543;SDS011;43388;46.308;4.600;2023-03-23T07:44:04;4.53;;;4.13;;
30543;SDS011;43388;46.308;4.600;2023-03-23T07:46:31;5.82;;;4.28;;
30543;SDS011;43388;46.308;4.600;2023-03-23T07:48:57;4.53;;;3.83;;
30543;SDS011;43388;46.308;4.600;2023-03-23T07:51:23;6.63;;;3.97;;
30543;SDS011;43388;46.308;4.600;2023-03-23T07:53:50;4.72;;;4.03;;
30543;SDS011;43388;46.308;4.600;2023-03-23T07:56:16;6.03;;;4.00;;
30543;SDS011;43388;46.308;4.600;2023-03-23T07:58:45;6.40;;;3.97;;
30543;SDS011;43388;46.308;4.600;2023-03-23T08:01:11;4.53;;;3.55;;
30543;SDS011;43388;46.308;4.600;2023-03-23T08:03:37;7.97;;;4.30;;
30543;SDS011;43388;46.308;4.600;2023-03-23T08:06:04;4.75;;;4.22;;
30543;SDS011;43388;46.308;4.600;2023-03-23T08:08:30;4.47;;;4.03;;
30543;SDS011;43388;46.308;4.600;2023-03-23T08:10:56;4.30;;;3.88;;
30543;SDS011;43388;46.308;4.600;2023-03-23T08:13:22;5.57;;;3.95;;
30543;SDS011;43388;46.308;4.600;2023-03-23T08:15:49;4.35;;;3.95;;
30543;SDS011;43388;46.308;4.600;2023-03-23T08:18:16;8.60;;;4.63;;
30543;SDS011;43388;46.308;4.600;2023-03-23T08:20:42;4.88;;;4.38;;
30543;SDS011;43388;46.308;4.600;2023-03-23T08:23:09;6.20;;;4.45;;
30543;SDS011;43388;46.308;4.600;2023-03-23T08:25:36;4.97;;;4.13;;
30543;SDS011;43388;46.308;4.600;2023-03-23T08:28:02;6.82;;;3.97;;
30543;SDS011;43388;46.308;4.600;2023-03-23T08:30:28;4.03;;;3.28;;
30543;SDS011;43388;46.308;4.600;2023-03-23T08:32:55;5.15;;;3.67;;
30543;SDS011;43388;46.308;4.600;2023-03-23T08:35:22;7.72;;;3.78;;
30543;SDS011;43388;46.308;4.600;2023-03-23T08:37:48;11.82;;;4.32;;
30543;SDS011;43388;46.308;4.600;2023-03-23T08:40:16;3.72;;;3.42;;
30543;SDS011;43388;46.308;4.600;2023-03-23T08:42:44;4.40;;;4.00;;
30543;SDS011;43388;46.308;4.600;2023-03-23T08:45:11;5.75;;;3.90;;
30543;SDS011;43388;46.308;4.600;2023-03-23T08:47:38;4.15;;;3.63;;
30543;SDS011;43388;46.308;4.600;2023-03-23T08:50:09;6.38;;;3.97;;
30543;SDS011;43388;46.308;4.600;2023-03-23T08:52:36;5.30;;;4.80;;
30543;SDS011;43388;46.308;4.600;2023-03-23T08:55:02;5.90;;;4.78;;
30543;SDS011;43388;46.308;4.600;2023-03-23T08:57:28;5.75;;;4.80;;
30543;SDS011;43388;46.308;4.600;2023-03-23T08:59:55;7.15;;;5.07;;
30543;SDS011;43388;46.308;4.600;2023-03-23T09:02:25;7.85;;;5.88;;
30543;SDS011;43388;46.308;4.600;2023-03-23T09:04:51;6.85;;;5.90;;
30543;SDS011;43388;46.308;4.600;2023-03-23T09:07:17;6.47;;;5.68;;
30543;SDS011;43388;46.308;4.600;2023-03-23T09:09:44;6.45;;;5.85;;
30543;SDS011;43388;46.308;4.600;2023-03-23T09:12:10;7.53;;;6.05;;
30543;SDS011;43388;46.308;4.600;2023-03-23T09:14:37;6.85;;;6.20;;
30543;SDS011;43388;46.308;4.600;2023-03-23T09:17:04;6.57;;;5.90;;
30543;SDS011;43388;46.308;4.600;2023-03-23T09:19:30;5.70;;;5.10;;
30543;SDS011;43388;46.308;4.600;2023-03-23T09:21:57;8.77;;;4.82;;
30543;SDS011;43388;46.308;4.600;2023-03-23T09:24:24;6.03;;;4.57;;
30543;SDS011;43388;46.308;4.600;2023-03-23T09:26:50;6.43;;;4.80;;
30543;SDS011;43388;46.308;4.600;2023-03-23T09:29:17;4.97;;;4.50;;
30543;SDS011;43388;46.308;4.600;2023-03-23T09:31:43;5.25;;;3.83;;
30543;SDS011;43388;46.308;4.600;2023-03-23T09:34:11;4.15;;;3.75;;
30543;SDS011;43388;46.308;4.600;2023-03-23T09:36:38;4.40;;;3.97;;
30543;SDS011;43388;46.308;4.600;2023-03-23T09:39:05;4.80;;;4.30;;
30543;SDS011;43388;46.308;4.600;2023-03-23T09:44:45;4.95;;;4.22;;
30543;SDS011;43388;46.308;4.600;2023-03-23T09:49:34;4.38;;;3.70;;
30543;SDS011;43388;46.308;4.600;2023-03-23T09:54:35;4.50;;;4.10;;
30543;SDS011;43388;46.308;4.600;2023-03-23T09:57:03;6.07;;;4.22;;
30543;SDS011;43388;46.308;4.600;2023-03-23T09:59:40;5.05;;;3.50;;
30543;SDS011;43388;46.308;4.600;2023-03-23T10:02:16;4.07;;;3.33;;
30543;SDS011;43388;46.308;4.600;2023-03-23T10:04:52;3.28;;;3.05;;
30543;SDS011;43388;46.308;4.600;2023-03-23T10:07:21;3.88;;;3.58;;
30543;SDS011;43388;46.308;4.600;2023-03-23T10:09:52;4.80;;;3.90;;
30543;SDS011;43388;46.308;4.600;2023-03-23T10:14:51;3.58;;;3.28;;
30543;SDS011;43388;46.308;4.600;2023-03-23T10:17:22;3.88;;;3.47;;
30543;SDS011;43388;46.308;4.600;2023-03-23T10:22:27;3.88;;;3.42;;
30543;SDS011;43388;46.308;4.600;2023-03-23T10:24:57;3.97;;;3.67;;
30543;SDS011;43388;46.308;4.600;2023-03-23T10:30:18;4.57;;;3.42;;
30543;SDS011;43388;46.308;4.600;2023-03-23T10:32:48;3.53;;;3.22;;
30543;SDS011;43388;46.308;4.600;2023-03-23T10:35:18;3.75;;;3.45;;
30543;SDS011;43388;46.308;4.600;2023-03-23T10:37:48;3.50;;;3.30;;
30543;SDS011;43388;46.308;4.600;2023-03-23T10:40:17;4.05;;;3.00;;
30543;SDS011;43388;46.308;4.600;2023-03-23T10:42:44;4.60;;;4.20;;
30543;SDS011;43388;46.308;4.600;2023-03-23T10:45:24;4.35;;;3.33;;
30543;SDS011;43388;46.308;4.600;2023-03-23T10:50:27;3.05;;;2.85;;
30543;SDS011;43388;46.308;4.600;2023-03-23T10:52:54;4.47;;;4.07;;
30543;SDS011;43388;46.308;4.600;2023-03-23T10:55:23;3.60;;;3.35;;
30543;SDS011;43388;46.308;4.600;2023-03-23T10:58:11;3.80;;;3.50;;
30543;SDS011;43388;46.308;4.600;2023-03-23T11:00:44;3.58;;;3.28;;
30543;SDS011;43388;46.308;4.600;2023-03-23T11:08:15;8.13;;;3.80;;
30543;SDS011;43388;46.308;4.600;2023-03-23T11:10:48;3.80;;;3.50;;
30543;SDS011;43388;46.308;4.600;2023-03-23T11:13:15;3.90;;;3.42;;
30543;SDS011;43388;46.308;4.600;2023-03-23T11:15:42;4.63;;;3.10;;
30543;SDS011;43388;46.308;4.600;2023-03-23T11:20:39;3.50;;;3.05;;
30543;SDS011;43388;46.308;4.600;2023-03-23T11:23:20;3.97;;;3.30;;
30543;SDS011;43388;46.308;4.600;2023-03-23T11:25:51;3.60;;;3.30;;
30543;SDS011;43388;46.308;4.600;2023-03-23T11:28:18;3.35;;;3.05;;
30543;SDS011;43388;46.308;4.600;2023-03-23T11:30:44;5.78;;;3.15;;
30543;SDS011;43388;46.308;4.600;2023-03-23T11:33:11;3.42;;;3.13;;
30543;SDS011;43388;46.308;4.600;2023-03-23T11:35:42;2.47;;;2.28;;
30543;SDS011;43388;46.308;4.600;2023-03-23T11:38:15;3.05;;;2.85;;
30543;SDS011;43388;46.308;4.600;2023-03-23T11:40:50;3.30;;;3.00;;
30543;SDS011;43388;46.308;4.600;2023-03-23T11:45:53;3.00;;;2.70;;
30543;SDS011;43388;46.308;4.600;2023-03-23T11:48:38;5.72;;;3.03;;
30543;SDS011;43388;46.308;4.600;2023-03-23T11:51:24;5.07;;;2.58;;
30543;SDS011;43388;46.308;4.600;2023-03-23T11:58:45;5.55;;;3.10;;
30543;SDS011;43388;46.308;4.600;2023-03-23T12:09:20;3.67;;;3.37;;
30543;SDS011;43388;46.308;4.600;2023-03-23T12:14:31;5.30;;;3.30;;
30543;SDS011;43388;46.308;4.600;2023-03-23T12:32:39;4.50;;;3.63;;
30543;SDS011;43388;46.308;4.600;2023-03-23T12:35:20;5.90;;;2.90;;
30543;SDS011;43388;46.308;4.600;2023-03-23T12:40:31;3.58;;;3.28;;
30543;SDS011;43388;46.308;4.600;2023-03-23T12:43:05;6.00;;;3.17;;
30543;SDS011;43388;46.308;4.600;2023-03-23T12:48:13;3.28;;;3.05;;
30543;SDS011;43388;46.308;4.600;2023-03-23T12:50:47;3.95;;;3.50;;
30543;SDS011;43388;46.308;4.600;2023-03-23T12:53:24;5.15;;;4.15;;
30543;SDS011;43388;46.308;4.600;2023-03-23T12:56:12;6.40;;;4.10;;
30543;SDS011;43388;46.308;4.600;2023-03-23T12:58:47;4.43;;;4.03;;
30543;SDS011;43388;46.308;4.600;2023-03-23T13:01:24;4.03;;;3.55;;
30543;SDS011;43388;46.308;4.600;2023-03-23T13:06:43;5.85;;;3.92;;
30543;SDS011;43388;46.308;4.600;2023-03-23T13:09:11;5.13;;;4.65;;
30543;SDS011;43388;46.308;4.600;2023-03-23T13:11:39;6.60;;;4.40;;
30543;SDS011;43388;46.308;4.600;2023-03-23T13:21:47;12.30;;;4.65;;
30543;SDS011;43388;46.308;4.600;2023-03-23T13:24:15;7.35;;;4.88;;
30543;SDS011;43388;46.308;4.600;2023-03-23T13:26:43;5.13;;;4.68;;
30543;SDS011;43388;46.308;4.600;2023-03-23T13:29:13;6.78;;;5.10;;
30543;SDS011;43388;46.308;4.600;2023-03-23T13:31:43;5.20;;;4.70;;
30543;SDS011;43388;46.308;4.600;2023-03-23T13:36:39;10.00;;;4.90;;
30543;SDS011;43388;46.308;4.600;2023-03-23T13:39:15;7.15;;;4.88;;
30543;SDS011;43388;46.308;4.600;2023-03-23T13:41:46;7.07;;;4.50;;
30543;SDS011;43388;46.308;4.600;2023-03-23T13:44:17;7.40;;;4.47;;
30543;SDS011;43388;46.308;4.600;2023-03-23T13:46:53;7.35;;;4.80;;
30543;SDS011;43388;46.308;4.600;2023-03-23T13:49:20;6.38;;;4.60;;
30543;SDS011;43388;46.308;4.600;2023-03-23T13:56:53;8.25;;;4.10;;
30543;SDS011;43388;46.308;4.600;2023-03-23T13:59:31;7.38;;;4.68;;
30543;SDS011;43388;46.308;4.600;2023-03-23T14:02:29;5.13;;;4.13;;
30543;SDS011;43388;46.308;4.600;2023-03-23T14:04:43;5.88;;;4.18;;
30543;SDS011;43388;46.308;4.600;2023-03-23T14:07:11;5.30;;;3.95;;
30543;SDS011;43388;46.308;4.600;2023-03-23T14:09:39;9.05;;;4.03;;
30543;SDS011;43388;46.308;4.600;2023-03-23T14:12:20;4.65;;;4.13;;
30543;SDS011;43388;46.308;4.600;2023-03-23T14:14:48;5.75;;;4.13;;
30543;SDS011;43388;46.308;4.600;2023-03-23T14:17:17;5.18;;;4.22;;
30543;SDS011;43388;46.308;4.600;2023-03-23T14:19:48;5.35;;;4.47;;
30543;SDS011;43388;46.308;4.600;2023-03-23T14:22:18;5.93;;;4.28;;
30543;SDS011;43388;46.308;4.600;2023-03-23T14:24:44;5.68;;;4.68;;
30543;SDS011;43388;46.308;4.600;2023-03-23T14:27:13;8.60;;;5.20;;
30543;SDS011;43388;46.308;4.600;2023-03-23T14:29:40;6.65;;;4.55;;
30543;SDS011;43388;46.308;4.600;2023-03-23T14:32:07;10.70;;;4.07;;
30543;SDS011;43388;46.308;4.600;2023-03-23T14:34:36;8.82;;;4.97;;
30543;SDS011;43388;46.308;4.600;2023-03-23T14:37:02;9.32;;;5.38;;
30543;SDS011;43388;46.308;4.600;2023-03-23T14:39:29;5.47;;;4.97;;
30543;SDS011;43388;46.308;4.600;2023-03-23T14:41:56;5.88;;;4.97;;
30543;SDS011;43388;46.308;4.600;2023-03-23T14:44:29;7.22;;;5.63;;
30543;SDS011;43388;46.308;4.600;2023-03-23T14:46:56;7.63;;;5.25;;
30543;SDS011;43388;46.308;4.600;2023-03-23T14:49:57;7.85;;;5.28;;
30543;SDS011;43388;46.308;4.600;2023-03-23T14:52:16;8.80;;;6.10;;
30543;SDS011;43388;46.308;4.600;2023-03-23T14:54:43;9.02;;;5.50;;
30543;SDS011;43388;46.308;4.600;2023-03-23T14:59:42;10.45;;;5.20;;
30543;SDS011;43388;46.308;4.600;2023-03-23T15:02:13;10.55;;;5.80;;
30543;SDS011;43388;46.308;4.600;2023-03-23T15:04:40;13.18;;;5.32;;
30543;SDS011;43388;46.308;4.600;2023-03-23T15:07:08;11.02;;;5.80;;
30543;SDS011;43388;46.308;4.600;2023-03-23T15:09:37;12.15;;;5.57;;
30543;SDS011;43388;46.308;4.600;2023-03-23T15:12:04;6.05;;;5.55;;
30543;SDS011;43388;46.308;4.600;2023-03-23T15:14:32;6.75;;;5.30;;
30543;SDS011;43388;46.308;4.600;2023-03-23T15:16:59;13.38;;;6.25;;
30543;SDS011;43388;46.308;4.600;2023-03-23T15:19:26;8.57;;;6.10;;
30543;SDS011;43388;46.308;4.600;2023-03-23T15:21:54;6.43;;;5.63;;
30543;SDS011;43388;46.308;4.600;2023-03-23T15:24:23;7.13;;;5.45;;
30543;SDS011;43388;46.308;4.600;2023-03-23T15:26:50;8.98;;;5.85;;
30543;SDS011;43388;46.308;4.600;2023-03-23T15:29:18;10.05;;;5.63;;
30543;SDS011;43388;46.308;4.600;2023-03-23T15:31:55;6.78;;;5.00;;
30543;SDS011;43388;46.308;4.600;2023-03-23T15:34:25;7.07;;;4.97;;
30543;SDS011;43388;46.308;4.600;2023-03-23T15:36:54;13.10;;;5.65;;
30543;SDS011;43388;46.308;4.600;2023-03-23T15:39:20;9.75;;;5.32;;
30543;SDS011;43388;46.308;4.600;2023-03-23T15:41:48;9.52;;;4.72;;
30543;SDS011;43388;46.308;4.600;2023-03-23T15:44:23;7.72;;;4.65;;
30543;SDS011;43388;46.308;4.600;2023-03-23T15:46:50;10.18;;;5.20;;
30543;SDS011;43388;46.308;4.600;2023-03-23T15:49:16;5.85;;;5.25;;
30543;SDS011;43388;46.308;4.600;2023-03-23T15:51:43;17.80;;;5.55;;
30543;SDS011;43388;46.308;4.600;2023-03-23T15:54:11;17.98;;;5.68;;
30543;SDS011;43388;46.308;4.600;2023-03-23T15:56:38;14.93;;;4.70;;
30543;SDS011;43388;46.308;4.600;2023-03-23T15:59:04;9.45;;;4.90;;
30543;SDS011;43388;46.308;4.600;2023-03-23T16:01:30;7.40;;;5.13;;
30543;SDS011;43388;46.308;4.600;2023-03-23T16:03:58;13.65;;;5.65;;
30543;SDS011;43388;46.308;4.600;2023-03-23T16:06:26;7.03;;;4.53;;
30543;SDS011;43388;46.308;4.600;2023-03-23T16:08:53;12.07;;;5.22;;
30543;SDS011;43388;46.308;4.600;2023-03-23T16:11:19;15.88;;;5.70;;
30543;SDS011;43388;46.308;4.600;2023-03-23T16:13:45;14.50;;;5.07;;
30543;SDS011;43388;46.308;4.600;2023-03-23T16:16:13;17.20;;;4.88;;
30543;SDS011;43388;46.308;4.600;2023-03-23T16:18:40;5.68;;;5.18;;
30543;SDS011;43388;46.308;4.600;2023-03-23T16:21:06;8.23;;;5.30;;
30543;SDS011;43388;46.308;4.600;2023-03-23T16:23:32;9.02;;;6.13;;
30543;SDS011;43388;46.308;4.600;2023-03-23T16:25:58;6.53;;;5.68;;
30543;SDS011;43388;46.308;4.600;2023-03-23T16:28:25;9.95;;;6.38;;
30543;SDS011;43388;46.308;4.600;2023-03-23T16:30:51;7.68;;;6.03;;
30543;SDS011;43388;46.308;4.600;2023-03-23T16:33:17;7.43;;;5.97;;
30543;SDS011;43388;46.308;4.600;2023-03-23T16:35:43;8.95;;;6.22;;